createdAt,value
2022-11-16T00:02:18.296Z,42.67
2022-11-16T00:04:44.881Z,54.20
2022-11-16T00:07:11.540Z,45.63
2022-11-16T00:09:38.340Z,47.57
2022-11-16T00:12:07.154Z,43.40
2022-11-16T00:14:35.359Z,37.50
2022-11-16T00:17:03.199Z,43.53
2022-11-16T00:19:29.872Z,40.20
2022-11-16T00:21:56.723Z,53.70
2022-11-16T00:24:23.829Z,41.87
2022-11-16T00:26:51.192Z,46.00
2022-11-16T00:29:25.352Z,49.03
2022-11-16T00:31:52.627Z,42.97
2022-11-16T00:34:19.909Z,48.23
2022-11-16T00:36:46.968Z,47.93
2022-11-16T00:39:15.191Z,46.57
2022-11-16T00:41:43.205Z,47.37
2022-11-16T00:44:10.504Z,42.03
2022-11-16T00:46:37.479Z,51.30
2022-11-16T00:49:05.686Z,42.73
2022-11-16T00:51:33.231Z,42.53
2022-11-16T00:53:59.896Z,48.13
2022-11-16T00:56:26.522Z,48.70
2022-11-16T00:58:53.192Z,46.17
2022-11-16T01:01:19.968Z,43.23
2022-11-16T01:03:47.824Z,43.93
2022-11-16T01:06:16.058Z,42.47
2022-11-16T01:08:43.859Z,46.37
2022-11-16T01:11:32.754Z,36.97
2022-11-16T01:14:06.151Z,42.83
2022-11-16T01:16:33.003Z,41.30
2022-11-16T01:18:59.899Z,42.00
2022-11-16T01:21:27.847Z,43.37
2022-11-16T01:23:55.762Z,45.77
2022-11-16T01:26:22.504Z,36.27
2022-11-16T01:28:49.124Z,41.87
2022-11-16T01:31:15.804Z,48.03
2022-11-16T01:33:42.469Z,46.77
2022-11-16T01:36:14.785Z,44.00
2022-11-16T01:38:46.034Z,44.43
2022-11-16T01:41:18.565Z,39.50
2022-11-16T01:43:57.381Z,45.77
2022-11-16T01:46:25.028Z,44.37
2022-11-16T01:48:58.182Z,51.87
2022-11-16T01:51:26.913Z,46.77
2022-11-16T01:53:54.045Z,47.57
2022-11-16T01:56:21.833Z,43.43
2022-11-16T01:58:49.747Z,44.63
2022-11-16T02:01:16.519Z,43.43
2022-11-16T02:03:43.228Z,56.20
2022-11-16T02:06:27.754Z,50.10
2022-11-16T02:09:43.027Z,49.97
2022-11-16T02:12:30.694Z,47.07
2022-11-16T02:15:18.478Z,39.30
2022-11-16T02:18:10.245Z,47.50
2022-11-16T02:20:45.755Z,59.77
2022-11-16T02:23:30.614Z,48.03
2022-11-16T02:26:34.471Z,45.10
2022-11-16T02:29:22.599Z,47.07
2022-11-16T02:32:11.447Z,49.80
2022-11-16T02:34:45.224Z,46.40
2022-11-16T02:37:16.211Z,49.03
2022-11-16T02:39:45.531Z,51.27
2022-11-16T02:42:17.306Z,52.43
2022-11-16T02:44:50.123Z,54.93
2022-11-16T02:47:24.365Z,52.97
2022-11-16T02:50:03.376Z,43.90
2022-11-16T02:52:30.066Z,54.60
2022-11-16T02:54:56.668Z,53.60
2022-11-16T02:57:49.299Z,57.87
2022-11-16T03:00:21.322Z,80.10
2022-11-16T03:03:14.407Z,78.70
2022-11-16T03:05:58.312Z,78.97
2022-11-16T03:08:35.478Z,81.17
2022-11-16T03:11:27.030Z,67.07
2022-11-16T03:14:00.781Z,77.97
2022-11-16T03:16:33.258Z,84.70
2022-11-16T03:19:03.574Z,68.67
2022-11-16T03:21:39.800Z,80.47
2022-11-16T03:24:07.706Z,81.13
2022-11-16T03:26:44.440Z,72.40
2022-11-16T03:29:20.219Z,76.40
2022-11-16T03:31:51.830Z,78.63
2022-11-16T03:34:23.531Z,77.00
2022-11-16T03:36:52.901Z,94.67
2022-11-16T03:39:29.213Z,83.57
2022-11-16T03:41:58.071Z,75.10
2022-11-16T03:44:25.715Z,78.20
2022-11-16T03:46:52.482Z,74.33
2022-11-16T03:49:23.597Z,72.27
2022-11-16T03:51:51.820Z,61.13
2022-11-16T03:54:18.493Z,62.10
2022-11-16T03:56:45.129Z,55.10
2022-11-16T03:59:12.369Z,61.60
2022-11-16T04:01:44.383Z,56.83
2022-11-16T04:04:31.391Z,67.50
2022-11-16T04:07:16.770Z,51.97
2022-11-16T04:10:02.261Z,54.83
2022-11-16T04:12:47.354Z,54.67
2022-11-16T04:15:32.879Z,60.97
2022-11-16T04:18:18.096Z,61.83
2022-11-16T04:21:03.652Z,63.67
2022-11-16T04:23:48.910Z,61.67
2022-11-16T04:26:15.943Z,67.63
2022-11-16T04:28:42.927Z,72.40
2022-11-16T04:31:28.175Z,63.27
2022-11-16T04:34:13.469Z,79.70
2022-11-16T04:36:58.604Z,57.60
2022-11-16T04:39:25.297Z,56.63
2022-11-16T04:42:10.516Z,75.00
2022-11-16T04:44:55.670Z,59.00
2022-11-16T04:47:22.295Z,53.37
2022-11-16T04:49:49.010Z,52.87
2022-11-16T04:52:15.694Z,65.37
2022-11-16T04:54:42.293Z,57.97
2022-11-16T04:57:09.079Z,68.07
2022-11-16T04:59:35.714Z,56.43
2022-11-16T05:02:08.324Z,62.37
2022-11-16T05:04:44.471Z,70.67
2022-11-16T05:07:14.647Z,70.63
2022-11-16T05:09:43.486Z,71.57
2022-11-16T05:12:11.776Z,71.20
2022-11-16T05:14:38.359Z,64.77
2022-11-16T05:17:05.011Z,67.93
2022-11-16T05:19:50.331Z,72.13
2022-11-16T05:22:16.963Z,68.80
2022-11-16T05:24:44.180Z,66.33
2022-11-16T05:27:14.279Z,57.97
2022-11-16T05:29:41.069Z,65.40
2022-11-16T05:32:08.125Z,74.73
2022-11-16T05:34:34.795Z,69.47
2022-11-16T05:37:02.276Z,72.63
2022-11-16T05:39:29.108Z,78.90
2022-11-16T05:41:56.822Z,67.83
2022-11-16T05:44:23.792Z,69.50
2022-11-16T05:46:50.982Z,61.37
2022-11-16T05:49:24.333Z,87.13
2022-11-16T05:51:51.542Z,75.90
2022-11-16T05:54:21.242Z,79.53
2022-11-16T05:56:49.449Z,75.70
2022-11-16T05:59:18.555Z,69.93
2022-11-16T06:01:45.274Z,65.73
2022-11-16T06:04:12.434Z,72.17
2022-11-16T06:06:39.045Z,66.00
2022-11-16T06:09:06.080Z,71.53
2022-11-16T06:11:36.040Z,77.17
2022-11-16T06:14:03.233Z,75.40
2022-11-16T06:16:30.116Z,50.87
2022-11-16T06:18:56.759Z,72.53
2022-11-16T06:21:23.339Z,53.43
2022-11-16T06:23:50.070Z,67.87
2022-11-16T06:26:16.688Z,52.63
2022-11-16T06:28:43.509Z,62.23
2022-11-16T06:31:10.137Z,47.17
2022-11-16T06:33:36.993Z,65.47
2022-11-16T06:36:03.933Z,70.77
2022-11-16T06:38:30.659Z,62.90
2022-11-16T06:40:58.830Z,58.80
2022-11-16T06:43:26.302Z,66.73
2022-11-16T06:45:55.533Z,60.93
2022-11-16T06:48:22.795Z,62.00
2022-11-16T06:50:50.821Z,73.00
2022-11-16T06:53:18.343Z,57.77
2022-11-16T06:55:45.053Z,65.97
2022-11-16T06:58:11.855Z,61.03
2022-11-16T07:00:38.543Z,59.67
2022-11-16T07:03:05.515Z,74.13
2022-11-16T07:05:32.476Z,57.63
2022-11-16T07:07:59.527Z,64.30
2022-11-16T07:10:26.562Z,60.10
2022-11-16T07:12:53.226Z,45.70
2022-11-16T07:15:20.156Z,63.83
2022-11-16T07:17:47.067Z,61.17
2022-11-16T07:20:14.230Z,59.97
2022-11-16T07:22:40.918Z,59.97
2022-11-16T07:25:08.268Z,62.67
2022-11-16T07:27:34.949Z,61.53
2022-11-16T07:30:02.288Z,79.33
2022-11-16T07:32:31.246Z,57.97
2022-11-16T07:34:59.402Z,56.77
2022-11-16T07:37:26.444Z,56.63
2022-11-16T07:39:53.085Z,55.43
2022-11-16T07:42:19.749Z,57.07
2022-11-16T07:44:46.395Z,68.57
2022-11-16T07:47:13.025Z,71.63
2022-11-16T07:49:39.647Z,60.57
2022-11-16T07:52:10.187Z,51.20
2022-11-16T07:54:37.315Z,67.97
2022-11-16T07:57:03.973Z,63.80
2022-11-16T07:59:30.640Z,65.03
2022-11-16T08:01:59.266Z,55.93
2022-11-16T08:04:26.150Z,60.73
2022-11-16T08:06:52.872Z,62.07
2022-11-16T08:09:19.741Z,59.33
2022-11-16T08:11:47.255Z,56.60
2022-11-16T08:14:14.165Z,61.77
2022-11-16T08:16:40.743Z,62.30
2022-11-16T08:19:07.307Z,60.17
2022-11-16T08:21:33.889Z,58.83
2022-11-16T08:24:00.520Z,57.77
2022-11-16T08:26:27.670Z,52.37
2022-11-16T08:28:56.493Z,51.67
2022-11-16T08:31:28.052Z,63.73
2022-11-16T08:33:54.844Z,64.40
2022-11-16T08:36:21.545Z,65.30
2022-11-16T08:38:49.322Z,66.43
2022-11-16T08:41:17.354Z,60.00
2022-11-16T08:43:44.677Z,62.67
2022-11-16T08:46:11.649Z,66.57
2022-11-16T08:48:39.003Z,60.73
2022-11-16T08:51:19.575Z,76.77
2022-11-16T08:53:48.585Z,68.83
2022-11-16T08:56:17.337Z,64.77
2022-11-16T08:58:44.426Z,63.93
2022-11-16T09:01:19.341Z,68.83
2022-11-16T09:03:46.696Z,64.03
2022-11-16T09:06:14.870Z,59.83
2022-11-16T09:08:44.320Z,61.73
2022-11-16T09:11:14.140Z,78.27
2022-11-16T09:13:40.719Z,65.90
2022-11-16T09:16:07.660Z,66.47
2022-11-16T09:18:35.236Z,66.43
2022-11-16T09:21:02.317Z,68.07
2022-11-16T09:23:28.970Z,65.43
2022-11-16T09:25:55.590Z,62.63
2022-11-16T09:28:22.825Z,54.50
2022-11-16T09:30:51.246Z,48.63
2022-11-16T09:33:17.905Z,59.87
2022-11-16T09:35:44.675Z,62.03
2022-11-16T09:38:15.978Z,48.40
2022-11-16T09:40:47.530Z,43.83
2022-11-16T09:44:05.939Z,43.90
2022-11-16T09:46:37.599Z,40.60
2022-11-16T09:49:17.224Z,45.60
2022-11-16T09:51:50.169Z,39.47
2022-11-16T09:54:44.584Z,37.83
2022-11-16T09:57:15.177Z,35.77
2022-11-16T09:59:49.868Z,46.80
2022-11-16T10:02:23.900Z,34.70
2022-11-16T10:05:18.117Z,30.07
2022-11-16T10:07:48.358Z,40.03
2022-11-16T10:10:30.471Z,38.80
2022-11-16T10:13:12.757Z,37.77
2022-11-16T10:16:05.014Z,29.77
2022-11-16T10:18:52.732Z,37.30
2022-11-16T10:21:43.830Z,34.33
2022-11-16T10:24:33.330Z,33.60
2022-11-16T10:27:51.106Z,27.97
2022-11-16T10:30:20.476Z,31.80
2022-11-16T10:32:53.319Z,33.93
2022-11-16T10:35:25.697Z,38.70
2022-11-16T10:37:52.381Z,38.03
2022-11-16T10:40:19.537Z,39.33
2022-11-16T10:43:13.234Z,28.87
2022-11-16T10:46:16.789Z,33.53
2022-11-16T10:48:57.143Z,37.57
2022-11-16T10:51:23.792Z,32.27
2022-11-16T10:53:50.876Z,35.63
2022-11-16T10:56:40.519Z,34.37
2022-11-16T10:59:09.438Z,31.63
2022-11-16T11:01:43.670Z,34.93
2022-11-16T11:04:12.917Z,36.00
2022-11-16T11:06:40.300Z,43.57
2022-11-16T11:09:22.011Z,41.13
2022-11-16T11:12:36.041Z,34.50
2022-11-16T11:15:11.539Z,41.67
2022-11-16T11:17:40.797Z,37.93
2022-11-16T11:20:18.344Z,32.50
2022-11-16T11:23:00.558Z,34.07
2022-11-16T11:25:29.837Z,37.70
2022-11-16T11:28:17.979Z,37.40
2022-11-16T11:31:11.842Z,35.57
2022-11-16T11:34:02.465Z,32.87
2022-11-16T11:36:36.027Z,33.10
2022-11-16T11:39:07.641Z,34.47
2022-11-16T11:41:41.570Z,30.93
2022-11-16T11:44:14.051Z,34.63
2022-11-16T11:47:50.269Z,30.07
2022-11-16T11:49:59.128Z,50.00
2022-11-16T11:52:48.645Z,38.20
2022-11-16T11:55:17.963Z,38.40
2022-11-16T11:57:47.659Z,28.60
2022-11-16T12:00:15.769Z,25.03
2022-11-16T12:02:45.210Z,43.17
2022-11-16T12:05:47.511Z,35.13
2022-11-16T12:08:41.773Z,49.70
2022-11-16T12:11:34.735Z,40.53
2022-11-16T12:14:16.190Z,32.20
2022-11-16T12:17:00.930Z,30.30
2022-11-16T12:19:56.305Z,37.83
2022-11-16T12:22:35.090Z,37.43
2022-11-16T12:25:10.989Z,33.83
2022-11-16T12:28:13.138Z,32.87
2022-11-16T12:30:48.376Z,41.87
2022-11-16T12:33:37.416Z,42.93
2022-11-16T12:36:36.279Z,36.53
2022-11-16T12:39:08.399Z,45.53
2022-11-16T12:41:46.681Z,55.43
2022-11-16T12:44:26.796Z,40.27
2022-11-16T12:47:05.724Z,38.37
2022-11-16T12:50:24.660Z,38.17
2022-11-16T12:53:08.146Z,38.60
2022-11-16T12:55:58.730Z,32.33
2022-11-16T12:58:38.924Z,26.23
2022-11-16T13:01:24.785Z,30.00
2022-11-16T13:03:58.575Z,44.17
2022-11-16T13:06:32.246Z,37.17
2022-11-16T13:09:05.956Z,40.37
2022-11-16T13:11:40.269Z,32.67
2022-11-16T13:14:12.964Z,33.23
2022-11-16T13:16:39.789Z,35.73
2022-11-16T13:19:10.265Z,44.53
2022-11-16T13:22:03.242Z,42.30
2022-11-16T13:24:41.599Z,35.17
2022-11-16T13:27:35.568Z,39.23
2022-11-16T13:30:21.718Z,33.67
2022-11-16T13:33:20.534Z,44.07
2022-11-16T13:35:47.149Z,36.33
2022-11-16T13:38:14.162Z,38.03
2022-11-16T13:40:41.469Z,32.80
2022-11-16T13:43:10.932Z,41.67
2022-11-16T13:45:43.542Z,37.20
2022-11-16T13:48:21.241Z,31.93
2022-11-16T13:50:57.792Z,36.90
2022-11-16T13:56:18.195Z,35.43
2022-11-16T13:58:51.593Z,37.30
2022-11-16T14:01:19.359Z,38.73
2022-11-16T14:03:51.811Z,40.20
2022-11-16T14:06:28.821Z,43.77
2022-11-16T14:08:59.329Z,37.07
2022-11-16T14:11:46.185Z,45.20
2022-11-16T14:14:51.320Z,51.53
2022-11-16T14:17:55.498Z,47.80
2022-11-16T14:21:03.733Z,35.97
2022-11-16T14:23:46.631Z,32.77
2022-11-16T14:26:18.847Z,63.37
2022-11-16T14:29:20.202Z,62.70
2022-11-16T14:31:57.134Z,44.07
2022-11-16T14:34:30.623Z,51.33
2022-11-16T14:36:59.026Z,39.30
2022-11-16T14:39:33.696Z,38.27
2022-11-16T14:42:05.943Z,83.70
2022-11-16T14:44:39.124Z,59.27
2022-11-16T14:47:17.673Z,75.43
2022-11-16T14:49:46.533Z,78.90
2022-11-16T14:52:15.162Z,64.53
2022-11-16T14:54:52.409Z,51.40
2022-11-16T14:57:22.132Z,46.50
2022-11-16T14:59:49.778Z,62.50
2022-11-16T15:02:23.077Z,41.97
2022-11-16T15:04:51.485Z,42.97
2022-11-16T15:07:20.009Z,49.23
2022-11-16T15:09:53.103Z,42.73
2022-11-16T15:12:41.377Z,35.27
2022-11-16T15:15:28.396Z,38.20
2022-11-16T15:18:00.917Z,30.67
2022-11-16T15:20:30.033Z,43.63
2022-11-16T15:23:03.555Z,31.00
2022-11-16T15:25:40.734Z,31.63
2022-11-16T15:28:17.945Z,31.73
2022-11-16T15:31:04.722Z,30.93
2022-11-16T15:33:41.389Z,33.93
2022-11-16T15:36:38.764Z,35.23
2022-11-16T15:39:11.932Z,35.77
2022-11-16T15:41:39.518Z,39.07
2022-11-16T15:44:14.660Z,37.87
2022-11-16T15:46:45.667Z,40.83
2022-11-16T15:49:30.408Z,37.37
2022-11-16T15:52:00.919Z,47.97
2022-11-16T15:54:30.067Z,41.83
2022-11-16T15:57:06.856Z,38.53
2022-11-16T15:59:35.572Z,41.23
2022-11-16T16:02:03.356Z,37.80
2022-11-16T16:04:30.191Z,48.27
2022-11-16T16:07:00.579Z,33.50
2022-11-16T16:09:39.392Z,35.63
2022-11-16T16:12:23.311Z,46.53
2022-11-16T16:14:51.970Z,34.87
2022-11-16T16:17:28.036Z,33.10
2022-11-16T16:19:58.047Z,42.00
2022-11-16T16:22:32.163Z,44.53
2022-11-16T16:24:58.849Z,63.23
2022-11-16T16:27:27.612Z,47.33
2022-11-16T16:30:02.492Z,77.80
2022-11-16T16:32:31.561Z,47.83
2022-11-16T16:35:00.159Z,54.33
2022-11-16T16:37:28.635Z,77.47
2022-11-16T16:39:55.572Z,72.07
2022-11-16T16:42:22.639Z,67.37
2022-11-16T16:44:52.384Z,61.93
2022-11-16T16:47:22.905Z,76.77
2022-11-16T16:49:49.813Z,48.17
2022-11-16T16:52:16.566Z,45.27
2022-11-16T16:54:44.007Z,38.70
2022-11-16T16:57:15.664Z,45.43
2022-11-16T16:59:46.488Z,33.50
2022-11-16T17:02:14.369Z,42.43
2022-11-16T17:04:42.274Z,38.90
2022-11-16T17:07:09.367Z,62.57
2022-11-16T17:09:36.191Z,54.50
2022-11-16T17:12:03.078Z,51.53
2022-11-16T17:14:31.007Z,43.83
2022-11-16T17:16:58.133Z,44.43
2022-11-16T17:19:26.077Z,40.53
2022-11-16T17:21:52.857Z,41.13
2022-11-16T17:24:20.580Z,37.17
2022-11-16T17:26:53.053Z,37.23
2022-11-16T17:29:19.641Z,36.10
2022-11-16T17:31:50.852Z,36.83
2022-11-16T17:34:17.641Z,37.43
2022-11-16T17:36:44.981Z,38.27
2022-11-16T17:39:31.559Z,37.53
2022-11-16T17:41:58.289Z,51.27
2022-11-16T17:44:26.815Z,49.87
2022-11-16T17:46:54.042Z,50.17
2022-11-16T17:49:23.067Z,48.07
2022-11-16T17:51:53.527Z,47.87
2022-11-16T17:54:20.407Z,41.20
2022-11-16T17:56:48.859Z,48.83
2022-11-16T17:59:15.555Z,72.30
2022-11-16T18:01:45.376Z,47.97
2022-11-16T18:04:12.617Z,57.30
2022-11-16T18:06:40.073Z,56.03
2022-11-16T18:09:07.050Z,43.43
2022-11-16T18:11:34.072Z,48.17
2022-11-16T18:14:01.372Z,47.87
2022-11-16T18:16:32.397Z,48.90
2022-11-16T18:19:01.541Z,48.00
2022-11-16T18:21:28.612Z,43.77
2022-11-16T18:23:55.574Z,47.80
2022-11-16T18:26:23.791Z,46.57
2022-11-16T18:28:51.736Z,44.20
2022-11-16T18:31:20.966Z,47.43
2022-11-16T18:33:49.232Z,43.47
2022-11-16T18:36:18.221Z,44.00
2022-11-16T18:39:27.071Z,48.30
2022-11-16T18:41:55.332Z,58.33
2022-11-16T18:44:56.785Z,58.90
2022-11-16T18:47:23.695Z,56.93
2022-11-16T18:49:50.369Z,53.50
2022-11-16T18:52:17.033Z,51.97
2022-11-16T18:54:43.629Z,64.33
2022-11-16T18:57:10.360Z,50.53
2022-11-16T18:59:45.555Z,55.03
2022-11-16T19:02:14.113Z,51.77
2022-11-16T19:04:40.824Z,47.33
2022-11-16T19:07:07.981Z,52.67
2022-11-16T19:09:34.850Z,46.30
2022-11-16T19:12:01.534Z,48.03
2022-11-16T19:14:28.176Z,57.20
2022-11-16T19:16:57.230Z,58.13
2022-11-16T19:19:25.457Z,65.80
2022-11-16T19:21:52.238Z,54.57
2022-11-16T19:24:19.152Z,53.10
2022-11-16T19:26:46.090Z,51.17
2022-11-16T19:29:12.792Z,54.53
2022-11-16T19:31:39.431Z,59.83
2022-11-16T19:34:08.032Z,50.30
2022-11-16T19:36:36.543Z,49.87
2022-11-16T19:39:04.324Z,46.47
2022-11-16T19:41:33.458Z,46.10
2022-11-16T19:44:02.131Z,42.17
2022-11-16T19:46:31.400Z,52.77
2022-11-16T19:48:59.144Z,53.00
2022-11-16T19:51:27.556Z,50.53
2022-11-16T19:53:55.160Z,49.00
2022-11-16T19:56:23.633Z,40.10
2022-11-16T19:58:51.007Z,44.47
2022-11-16T20:01:29.867Z,49.53
2022-11-16T20:03:58.720Z,36.40
2022-11-16T20:06:29.201Z,57.80
2022-11-16T20:09:00.393Z,49.00
2022-11-16T20:11:29.226Z,55.50
2022-11-16T20:14:00.349Z,52.60
2022-11-16T20:16:37.036Z,55.40
2022-11-16T20:19:05.914Z,47.13
2022-11-16T20:21:35.608Z,48.33
2022-11-16T20:24:06.680Z,42.93
2022-11-16T20:26:35.068Z,39.73
2022-11-16T20:29:04.760Z,44.17
2022-11-16T20:31:33.792Z,40.90
2022-11-16T20:34:03.305Z,42.57
2022-11-16T20:36:31.795Z,43.03
2022-11-16T20:38:59.685Z,40.50
2022-11-16T20:41:28.709Z,36.87
2022-11-16T20:44:00.679Z,29.93
2022-11-16T20:46:31.035Z,39.77
2022-11-16T20:49:00.801Z,34.10
2022-11-16T20:51:28.857Z,41.10
2022-11-16T20:53:55.837Z,37.90
2022-11-16T20:56:22.649Z,39.17
2022-11-16T20:58:50.090Z,36.63
2022-11-16T21:01:29.788Z,40.43
2022-11-16T21:03:56.610Z,39.87
2022-11-16T21:06:23.381Z,34.13
2022-11-16T21:08:50.052Z,37.30
2022-11-16T21:11:22.960Z,34.17
2022-11-16T21:14:08.201Z,38.17
2022-11-16T21:16:35.048Z,33.17
2022-11-16T21:19:02.493Z,31.40
2022-11-16T21:21:29.590Z,31.17
2022-11-16T21:23:56.304Z,32.10
2022-11-16T21:26:25.238Z,31.60
2022-11-16T21:28:52.625Z,28.40
2022-11-16T21:31:21.682Z,28.13
2022-11-16T21:33:48.701Z,24.47
2022-11-16T21:36:17.371Z,30.33
2022-11-16T21:38:44.113Z,28.37
2022-11-16T21:41:12.404Z,26.97
2022-11-16T21:43:40.659Z,24.13
2022-11-16T21:46:11.197Z,31.10
2022-11-16T21:48:38.593Z,29.00
2022-11-16T21:51:16.488Z,27.57
2022-11-16T21:53:43.522Z,27.87
2022-11-16T21:56:15.821Z,26.27
2022-11-16T21:58:42.719Z,29.43
2022-11-16T22:01:10.942Z,24.70
2022-11-16T22:03:38.539Z,26.60
2022-11-16T22:06:25.812Z,24.67
2022-11-16T22:08:52.940Z,21.37
2022-11-16T22:11:22.091Z,25.57
2022-11-16T22:13:49.946Z,25.30
2022-11-16T22:16:18.411Z,22.20
2022-11-16T22:18:45.268Z,26.43
2022-11-16T22:21:12.609Z,24.83
2022-11-16T22:23:39.730Z,21.57
2022-11-16T22:26:09.380Z,28.27
2022-11-16T22:28:36.860Z,23.20
2022-11-16T22:31:06.047Z,24.87
2022-11-16T22:33:33.819Z,27.47
2022-11-16T22:36:00.916Z,19.30
2022-11-16T22:38:27.683Z,26.70
2022-11-16T22:40:56.313Z,30.00
2022-11-16T22:43:25.857Z,22.93
2022-11-16T22:45:59.976Z,22.77
2022-11-16T22:48:38.055Z,27.30
2022-11-16T22:51:17.660Z,19.37
2022-11-16T22:53:44.452Z,23.10
2022-11-16T22:56:11.442Z,22.63
2022-11-16T22:58:39.422Z,26.13
2022-11-16T23:01:08.663Z,23.70
2022-11-16T23:03:36.343Z,20.17
2022-11-16T23:06:04.177Z,25.23
2022-11-16T23:08:31.011Z,28.60
2022-11-16T23:11:27.957Z,24.20
2022-11-16T23:14:13.270Z,23.73
2022-11-16T23:16:40.949Z,27.83
2022-11-16T23:23:20.800Z,30.43
2022-11-16T23:26:06.234Z,30.07
2022-11-16T23:28:32.849Z,30.00
2022-11-16T23:31:00.429Z,27.87
2022-11-16T23:33:44.240Z,29.90
2022-11-16T23:36:25.440Z,21.77
2022-11-16T23:41:54.236Z,33.00
2022-11-16T23:44:22.152Z,30.93
2022-11-16T23:46:48.842Z,29.67
2022-11-16T23:49:15.432Z,30.37
2022-11-16T23:51:42.683Z,24.60
2022-11-16T23:54:13.106Z,24.73
2022-11-16T23:56:39.841Z,26.80
2022-11-16T23:59:06.511Z,26.00
